Time;durP1;ratioP1;P1;durP2;ratioP2;P2;SDS_P1;SDS_P2;PMS_P1;PMS_P2;Temp;Humidity;BMP_temperature;BMP_pressure;BME280_temperature;BME280_humidity;BME280_pressure;Samples;Min_cycle;Max_cycle;Signal;HPM_P1;HPM_P2
2022/06/25 04:02:38;;;;;;;2.50;2.40;;;16.10;99.90;;;;;;4976601;28;20808;-63
2022/06/25 04:05:05;;;;;;;3.93;2.73;;;16.10;99.90;;;;;;4977817;28;20454;-63
2022/06/25 04:07:32;;;;;;;3.00;2.70;;;16.20;99.90;;;;;;4977851;28;20450;-61
2022/06/25 04:09:59;;;;;;;3.90;2.90;;;16.20;99.90;;;;;;4977738;28;20450;-61
2022/06/25 04:12:25;;;;;;;3.03;2.80;;;16.30;99.90;;;;;;4977366;28;20985;-61
2022/06/25 04:14:52;;;;;;;3.77;3.03;;;16.30;99.90;;;;;;4977636;28;20791;-61
2022/06/25 04:17:19;;;;;;;5.00;2.80;;;16.40;99.90;;;;;;4977467;28;20462;-62
2022/06/25 04:19:47;;;;;;;3.50;2.87;;;16.50;99.90;;;;;;4977302;28;20454;-61
2022/06/25 04:22:13;;;;;;;3.33;3.00;;;16.50;99.90;;;;;;4977403;28;20470;-61
2022/06/25 04:24:42;;;;;;;6.10;3.47;;;16.60;99.90;;;;;;4977428;28;20489;-61
2022/06/25 04:29:03;;;;;;;5.00;3.30;;;16.60;99.90;;;;;;4977418;28;20517;-62
2022/06/25 04:29:54;;;;;;;3.90;3.60;;;16.60;99.90;;;;;;4976881;28;20462;-62
2022/06/25 04:32:21;;;;;;;11.43;4.03;;;16.60;99.90;;;;;;4977394;28;20881;-62
2022/06/25 04:34:49;;;;;;;3.73;3.33;;;16.60;99.90;;;;;;4978004;28;20666;-62
2022/06/25 04:37:16;;;;;;;4.47;4.10;;;16.70;99.90;;;;;;4979692;28;20462;-62
2022/06/25 04:39:43;;;;;;;6.40;4.23;;;16.70;99.90;;;;;;4981933;28;20463;-61
2022/06/25 04:42:09;;;;;;;3.60;3.40;;;16.70;99.90;;;;;;4980596;28;21005;-62
2022/06/25 04:44:36;;;;;;;4.10;3.77;;;16.70;99.90;;;;;;4978477;28;20479;-62
2022/06/25 04:47:03;;;;;;;4.47;3.60;;;16.70;99.90;;;;;;4977036;28;20458;-62
2022/06/25 04:49:29;;;;;;;3.80;3.40;;;16.70;99.90;;;;;;4977071;28;20482;-62
2022/06/25 04:51:57;;;;;;;3.20;2.90;;;16.60;99.90;;;;;;4976922;28;20478;-62
2022/06/25 04:54:24;;;;;;;3.60;3.30;;;16.70;99.90;;;;;;4976608;28;20459;-63
2022/06/25 04:56:51;;;;;;;3.23;3.00;;;16.70;99.90;;;;;;4976940;28;20459;-62
2022/06/25 04:59:18;;;;;;;3.63;3.30;;;16.80;99.90;;;;;;4976839;28;20829;-63
2022/06/25 05:01:45;;;;;;;3.00;2.67;;;16.80;99.90;;;;;;4976502;28;20504;-63
2022/06/25 05:04:12;;;;;;;6.60;3.27;;;16.90;99.90;;;;;;4976324;28;20505;-62
2022/06/25 05:06:39;;;;;;;5.10;3.40;;;16.90;99.90;;;;;;4976758;28;20458;-62
2022/06/25 05:09:08;;;;;;;3.57;3.37;;;16.90;99.90;;;;;;4976511;28;20938;-62
2022/06/25 05:11:34;;;;;;;3.67;3.37;;;17.00;99.90;;;;;;4976178;28;20997;-62
2022/06/25 05:14:01;;;;;;;3.47;3.17;;;17.00;99.90;;;;;;4976576;28;20814;-63
2022/06/25 05:16:28;;;;;;;3.97;3.40;;;17.10;99.90;;;;;;4976422;28;20823;-63
2022/06/25 05:18:55;;;;;;;3.37;3.07;;;17.20;99.90;;;;;;4976451;28;20459;-62
2022/06/25 05:21:22;;;;;;;2.80;2.70;;;17.30;99.90;;;;;;4976032;28;20814;-62
2022/06/25 05:23:48;;;;;;;3.07;2.90;;;17.40;99.90;;;;;;4976429;28;20481;-63
2022/06/25 05:26:16;;;;;;;5.93;3.10;;;17.50;99.90;;;;;;4976385;28;20455;-63
2022/06/25 05:28:43;;;;;;;3.23;2.90;;;17.50;99.90;;;;;;4976341;28;20514;-63
2022/06/25 05:31:10;;;;;;;2.93;2.67;;;17.60;99.90;;;;;;4976231;28;20482;-63
2022/06/25 05:33:37;;;;;;;2.97;2.77;;;17.60;99.90;;;;;;4976165;28;20486;-63
2022/06/25 05:36:05;;;;;;;2.97;2.77;;;17.70;99.90;;;;;;4976293;28;20462;-62
2022/06/25 05:38:32;;;;;;;3.63;2.90;;;17.70;99.90;;;;;;4976156;28;20462;-62
2022/06/25 05:40:58;;;;;;;3.03;2.93;;;17.90;99.90;;;;;;4976222;28;20474;-63
2022/06/25 05:43:26;;;;;;;2.90;2.70;;;17.90;99.90;;;;;;4976114;28;20462;-63
2022/06/25 05:45:53;;;;;;;2.70;2.60;;;18.00;99.90;;;;;;4986481;28;20455;-62
2022/06/25 05:48:20;;;;;;;3.03;2.30;;;18.10;99.90;;;;;;4983446;28;20455;-62
2022/06/25 05:50:46;;;;;;;5.23;3.20;;;18.20;99.90;;;;;;4976997;28;20478;-62
2022/06/25 05:53:13;;;;;;;3.60;2.63;;;18.30;99.90;;;;;;4977688;28;20462;-61
2022/06/25 05:55:40;;;;;;;2.20;2.10;;;18.40;99.90;;;;;;4976908;28;20462;-61
2022/06/25 05:58:07;;;;;;;2.43;2.20;;;18.50;99.90;;;;;;4975697;28;20956;-62
2022/06/25 06:00:35;;;;;;;3.30;3.03;;;18.50;99.90;;;;;;4975619;28;20509;-62
2022/06/25 06:03:02;;;;;;;2.47;2.20;;;18.60;99.90;;;;;;4975972;28;20462;-63
2022/06/25 06:05:28;;;;;;;4.07;2.60;;;18.70;99.90;;;;;;4976012;28;20490;-62
2022/06/25 06:07:55;;;;;;;2.60;2.50;;;18.80;99.90;;;;;;4975959;28;20464;-62
2022/06/25 06:10:22;;;;;;;3.40;2.47;;;18.90;99.90;;;;;;4975779;28;20462;-62
2022/06/25 06:12:48;;;;;;;2.77;2.40;;;19.00;99.90;;;;;;4976064;28;20466;-62
2022/06/25 06:15:15;;;;;;;3.80;2.50;;;19.20;99.90;;;;;;4976059;28;20455;-62
2022/06/25 06:17:43;;;;;;;2.40;2.30;;;19.30;99.90;;;;;;4975584;28;20458;-62
2022/06/25 06:20:10;;;;;;;2.90;2.30;;;19.40;99.90;;;;;;4975133;28;20852;-62
2022/06/25 06:22:37;;;;;;;2.23;2.13;;;19.50;99.90;;;;;;4975582;28;20464;-62
2022/06/25 06:25:05;;;;;;;1.97;1.87;;;19.60;99.90;;;;;;4975433;28;20482;-63
2022/06/25 06:27:31;;;;;;;2.27;2.17;;;19.80;99.90;;;;;;4975206;28;20934;-62
2022/06/25 06:29:58;;;;;;;2.33;2.23;;;20.00;99.90;;;;;;4975528;28;20458;-62
2022/06/25 06:32:25;;;;;;;2.27;2.07;;;20.00;99.90;;;;;;4975206;28;20482;-62
2022/06/25 06:34:53;;;;;;;2.23;2.13;;;20.10;99.90;;;;;;4975479;28;20477;-62
2022/06/25 06:37:21;;;;;;;2.33;2.23;;;20.00;99.90;;;;;;4975565;28;20481;-62
2022/06/25 06:39:48;;;;;;;1.60;1.57;;;20.30;99.90;;;;;;4975323;28;20545;-63
2022/06/25 06:42:15;;;;;;;4.53;1.80;;;20.50;99.90;;;;;;4975457;28;20863;-62
2022/06/25 06:44:42;;;;;;;2.27;2.07;;;20.70;99.90;;;;;;4975205;28;20478;-62
2022/06/25 06:47:08;;;;;;;2.10;1.90;;;20.90;99.90;;;;;;4975199;28;20462;-62
2022/06/25 06:49:35;;;;;;;2.70;2.00;;;21.10;99.90;;;;;;4975203;28;20458;-62
2022/06/25 06:52:04;;;;;;;1.97;1.80;;;21.40;99.90;;;;;;4975105;28;20909;-61
2022/06/25 06:54:31;;;;;;;2.10;1.70;;;21.50;99.90;;;;;;4975008;28;20511;-62
2022/06/25 06:56:57;;;;;;;2.83;2.20;;;21.60;99.90;;;;;;4975432;28;20953;-62
2022/06/25 06:59:24;;;;;;;2.23;2.13;;;21.80;99.90;;;;;;4975002;28;20466;-61
2022/06/25 07:01:51;;;;;;;2.50;2.07;;;22.20;99.90;;;;;;4974761;28;20490;-61
2022/06/25 07:04:17;;;;;;;2.13;2.03;;;22.50;99.90;;;;;;4974894;28;20482;-62
2022/06/25 07:06:44;;;;;;;1.70;1.60;;;23.00;99.90;;;;;;4974868;28;20455;-61
2022/06/25 07:09:12;;;;;;;1.93;1.83;;;23.50;99.90;;;;;;4974953;28;20461;-61
2022/06/25 07:11:39;;;;;;;2.60;1.47;;;24.00;99.90;;;;;;4974889;28;20479;-62
2022/06/25 07:14:05;;;;;;;2.07;1.90;;;24.70;99.90;;;;;;4974969;28;20455;-61
2022/06/25 07:16:34;;;;;;;2.40;1.97;;;25.20;99.90;;;;;;4974816;28;20462;-61
2022/06/25 07:19:01;;;;;;;1.70;1.53;;;25.70;99.90;;;;;;4974898;28;20454;-62
2022/06/25 07:21:28;;;;;;;2.33;1.47;;;26.20;99.90;;;;;;4974775;28;20478;-61
2022/06/25 07:23:55;;;;;;;1.70;1.60;;;26.50;99.90;;;;;;4974741;28;20482;-61
2022/06/25 07:26:24;;;;;;;1.40;1.30;;;26.80;99.90;;;;;;4974807;28;20461;-62
2022/06/25 07:28:52;;;;;;;1.60;1.50;;;27.30;99.90;;;;;;4978099;28;20462;-62
2022/06/25 07:31:18;;;;;;;1.50;1.40;;;27.80;99.90;;;;;;4978426;28;20481;-61
2022/06/25 07:33:45;;;;;;;1.70;1.60;;;28.20;99.90;;;;;;4978275;28;20941;-61
2022/06/25 07:36:12;;;;;;;2.00;1.53;;;28.50;99.90;;;;;;4979690;28;20461;-61
2022/06/25 07:38:39;;;;;;;1.73;1.47;;;28.00;99.90;;;;;;4978582;28;20466;-61
2022/06/25 07:41:06;;;;;;;1.50;1.40;;;28.30;99.90;;;;;;4978435;28;20478;-61
2022/06/25 07:43:34;;;;;;;2.80;1.50;;;28.60;99.90;;;;;;4978417;28;20883;-61
2022/06/25 07:46:02;;;;;;;1.40;1.40;;;28.80;99.90;;;;;;4981468;28;20506;-61
2022/06/25 07:48:29;;;;;;;1.20;1.20;;;29.20;98.40;;;;;;4988381;28;20509;-62
2022/06/25 07:53:40;;;;;;;1.30;1.20;;;29.30;98.60;;;;;;4978191;28;20418;-62
2022/06/25 07:56:07;;;;;;;2.37;1.70;;;29.10;96.30;;;;;;4978062;28;20458;-62
2022/06/25 07:58:35;;;;;;;1.83;1.50;;;29.20;95.10;;;;;;4977995;28;20464;-62
2022/06/25 08:01:03;;;;;;;10.60;1.77;;;29.40;94.90;;;;;;4977414;28;20853;-62
2022/06/25 08:03:29;;;;;;;1.90;1.53;;;29.50;96.10;;;;;;4977953;28;20450;-62
2022/06/25 08:05:57;;;;;;;4.03;1.80;;;29.80;97.50;;;;;;4977764;28;20478;-62
2022/06/25 08:08:23;;;;;;;1.27;1.17;;;30.30;94.20;;;;;;4977485;28;20942;-62
2022/06/25 08:10:51;;;;;;;3.03;1.40;;;30.30;93.70;;;;;;4977788;28;20478;-63
2022/06/25 08:13:18;;;;;;;2.73;1.70;;;30.30;92.30;;;;;;4977843;28;20458;-62
2022/06/25 08:15:46;;;;;;;1.60;1.60;;;29.80;92.60;;;;;;4977884;28;20451;-62
2022/06/25 08:18:13;;;;;;;1.47;1.40;;;29.00;93.10;;;;;;4977311;28;20949;-62
2022/06/25 08:20:39;;;;;;;1.67;1.57;;;28.70;94.10;;;;;;4977981;28;20489;-63
2022/06/25 08:23:07;;;;;;;1.70;1.60;;;29.10;94.80;;;;;;4977577;28;20467;-62
2022/06/25 08:25:34;;;;;;;2.10;1.50;;;29.30;95.10;;;;;;4977481;28;20482;-63
2022/06/25 08:28:00;;;;;;;2.10;1.50;;;29.70;94.50;;;;;;4977549;28;20467;-63
2022/06/25 08:30:28;;;;;;;1.53;1.43;;;30.40;92.80;;;;;;4977509;28;20454;-63
2022/06/25 08:32:56;;;;;;;1.70;1.60;;;31.10;91.30;;;;;;4977593;28;20821;-63
2022/06/25 08:35:23;;;;;;;1.67;1.57;;;31.80;90.50;;;;;;4977527;28;20450;-63
2022/06/25 08:37:51;;;;;;;3.03;1.60;;;32.10;84.60;;;;;;4990154;28;20465;-63
2022/06/25 08:40:19;;;;;;;1.80;1.50;;;32.30;82.20;;;;;;4985678;28;20545;-63
2022/06/25 08:42:48;;;;;;;1.97;1.87;;;32.60;84.20;;;;;;4978032;28;20458;-63
2022/06/25 08:45:16;;;;;;;1.40;1.30;;;32.60;82.40;;;;;;4977107;28;20525;-63
2022/06/25 08:47:44;;;;;;;1.47;1.37;;;32.90;82.00;;;;;;4977298;28;20492;-63
2022/06/25 08:50:14;;;;;;;2.40;1.70;;;33.00;80.90;;;;;;4977173;28;20462;-63
2022/06/25 08:52:44;;;;;;;1.60;1.47;;;32.60;81.90;;;;;;4977377;28;20545;-63
2022/06/25 08:55:14;;;;;;;1.50;1.50;;;32.90;79.80;;;;;;4976783;28;21033;-63
2022/06/25 08:57:41;;;;;;;5.20;1.50;;;33.10;80.70;;;;;;4976918;28;20438;-63
2022/06/25 09:00:09;;;;;;;1.90;1.60;;;33.30;77.60;;;;;;4976672;28;20526;-63
2022/06/25 09:02:39;;;;;;;2.67;2.00;;;33.30;75.50;;;;;;4977564;28;20473;-63
2022/06/25 09:05:08;;;;;;;1.60;1.50;;;33.70;77.50;;;;;;4976517;28;20474;-63
2022/06/25 09:07:36;;;;;;;2.70;1.37;;;34.10;73.00;;;;;;4976517;28;21023;-63
2022/06/25 09:10:03;;;;;;;1.37;1.30;;;34.40;69.90;;;;;;4976861;28;20461;-63
2022/06/25 09:12:30;;;;;;;1.57;1.47;;;34.80;69.00;;;;;;4976741;28;20505;-63
2022/06/25 09:14:57;;;;;;;4.70;1.33;;;34.60;68.40;;;;;;4978206;28;20446;-63
2022/06/25 09:17:25;;;;;;;3.50;1.50;;;34.90;64.10;;;;;;4978751;28;20461;-63
2022/06/25 09:19:54;;;;;;;3.57;1.80;;;35.20;68.50;;;;;;4976457;28;20458;-63
2022/06/25 09:22:23;;;;;;;1.30;1.30;;;35.10;66.10;;;;;;4978800;28;20477;-63
2022/06/25 09:24:53;;;;;;;1.50;1.50;;;35.40;62.90;;;;;;4981664;28;20474;-62
2022/06/25 09:27:22;;;;;;;1.50;1.33;;;35.00;63.80;;;;;;4978919;28;20496;-64
2022/06/25 09:29:51;;;;;;;1.50;1.27;;;35.00;68.30;;;;;;4978254;28;20454;-63
2022/06/25 09:32:18;;;;;;;1.60;1.50;;;35.10;67.10;;;;;;4976919;28;20877;-63
2022/06/25 09:34:46;;;;;;;1.40;1.30;;;35.00;65.20;;;;;;4976728;28;20941;-63
2022/06/25 09:37:24;;;;;;;1.60;1.23;;;35.00;65.00;;;;;;4977574;28;20556;-63
2022/06/25 09:39:54;;;;;;;2.70;1.30;;;34.90;65.70;;;;;;4976686;28;20446;-62
2022/06/25 09:42:28;;;;;;;1.43;1.30;;;35.20;63.60;;;;;;4976575;28;20473;-63
2022/06/25 09:45:04;;;;;;;1.03;1.03;;;35.20;56.00;;;;;;4976532;28;20987;-64
2022/06/25 09:47:31;;;;;;;1.20;1.20;;;35.30;56.00;;;;;;4976365;28;20438;-64
2022/06/25 09:50:07;;;;;;;4.10;3.33;;;34.90;58.00;;;;;;4976119;28;20465;-64
2022/06/25 09:52:35;;;;;;;3.30;2.07;;;34.80;62.00;;;;;;4975261;28;20485;-63
2022/06/25 09:55:04;;;;;;;1.60;1.50;;;35.00;63.00;;;;;;4976387;28;20450;-63
2022/06/25 09:57:31;;;;;;;2.87;1.70;;;34.70;60.30;;;;;;4985974;28;20458;-63
2022/06/25 10:00:00;;;;;;;1.73;1.63;;;34.60;60.00;;;;;;4982910;28;20864;-63
2022/06/25 10:02:29;;;;;;;1.40;1.30;;;34.20;59.60;;;;;;4975970;28;20490;-63
2022/06/25 10:05:00;;;;;;;1.63;1.37;;;34.10;60.60;;;;;;4975673;28;21028;-63
2022/06/25 10:10:17;;;;;;;1.70;1.60;;;34.30;62.00;;;;;;4975225;28;20446;-63
2022/06/25 10:12:45;;;;;;;2.30;1.40;;;34.30;59.80;;;;;;4975787;28;20438;-62
2022/06/25 10:15:13;;;;;;;3.20;1.77;;;33.70;59.00;;;;;;4975683;28;20453;-63
2022/06/25 10:17:41;;;;;;;3.70;1.90;;;33.50;63.70;;;;;;4975556;28;20450;-62
2022/06/25 10:20:09;;;;;;;2.07;1.70;;;33.20;61.80;;;;;;4975745;28;20477;-62
2022/06/25 10:22:38;;;;;;;1.70;1.60;;;33.50;60.50;;;;;;4975428;28;20477;-62
2022/06/25 10:25:08;;;;;;;1.60;1.50;;;33.10;61.10;;;;;;4975512;28;20505;-62
2022/06/25 10:27:40;;;;;;;2.30;1.90;;;32.80;62.40;;;;;;4975862;28;20458;-62
2022/06/25 10:30:08;;;;;;;1.67;1.57;;;32.10;65.10;;;;;;4975597;28;20450;-62
2022/06/25 10:32:42;;;;;;;1.70;1.60;;;31.90;65.80;;;;;;4975540;28;20533;-62
2022/06/25 10:35:09;;;;;;;2.10;1.80;;;31.80;67.20;;;;;;4975309;28;20912;-63
2022/06/25 10:37:59;;;;;;;1.60;1.50;;;31.40;64.60;;;;;;4975428;28;20455;-62
2022/06/25 10:40:26;;;;;;;2.20;2.00;;;31.20;68.90;;;;;;4975405;28;20448;-63
2022/06/25 10:43:00;;;;;;;2.50;2.30;;;31.60;68.70;;;;;;4975193;28;20454;-62
2022/06/25 10:45:46;;;;;;;3.47;1.73;;;32.20;65.40;;;;;;4986022;28;20535;-63
2022/06/25 10:48:14;;;;;;;2.47;1.60;;;32.90;63.60;;;;;;4980382;28;20501;-62
2022/06/25 10:50:47;;;;;;;1.90;1.60;;;33.30;63.70;;;;;;4975423;28;20871;-62
2022/06/25 10:53:19;;;;;;;1.80;1.70;;;33.60;62.10;;;;;;4975250;28;20438;-62
2022/06/25 10:56:22;;;;;;;2.03;1.70;;;33.60;63.40;;;;;;4975416;28;20454;-63
2022/06/25 10:58:51;;;;;;;2.27;1.90;;;33.90;61.70;;;;;;4975094;28;20442;-63
2022/06/25 11:01:27;;;;;;;3.67;2.17;;;33.90;58.40;;;;;;4974937;28;20517;-63
2022/06/25 11:03:55;;;;;;;1.40;1.40;;;34.20;62.30;;;;;;4978397;28;20438;-63
2022/06/25 11:06:24;;;;;;;4.23;2.20;;;34.20;59.00;;;;;;4979099;28;20505;-63
2022/06/25 11:08:52;;;;;;;2.67;1.60;;;34.40;59.70;;;;;;4979066;28;20454;-63
2022/06/25 11:11:26;;;;;;;1.60;1.50;;;34.50;59.90;;;;;;4979059;28;20480;-63
2022/06/25 11:13:55;;;;;;;2.17;1.60;;;34.70;57.50;;;;;;4978906;28;20453;-63
2022/06/25 11:16:23;;;;;;;1.63;1.53;;;34.70;57.80;;;;;;4978854;28;20937;-63
2022/06/25 11:18:53;;;;;;;2.63;1.80;;;34.50;55.70;;;;;;4978852;28;20490;-62
2022/06/25 11:21:34;;;;;;;1.80;1.70;;;33.90;57.80;;;;;;4978260;28;20999;-63
2022/06/25 11:24:19;;;;;;;2.37;1.80;;;33.70;58.70;;;;;;4978978;28;20972;-63
2022/06/25 11:29:39;;;;;;;1.50;1.37;;;32.90;59.50;;;;;;4979109;28;20417;-63
2022/06/25 11:32:07;;;;;;;2.43;1.80;;;32.80;61.40;;;;;;4979171;28;20474;-63
2022/06/25 11:34:35;;;;;;;1.83;1.83;;;32.30;62.60;;;;;;4979368;28;20490;-63
2022/06/25 11:37:07;;;;;;;5.90;2.00;;;32.30;66.70;;;;;;4979110;28;20458;-63
2022/06/25 11:39:35;;;;;;;1.57;1.47;;;32.00;60.20;;;;;;4979164;28;20453;-63
2022/06/25 11:42:03;;;;;;;1.73;1.63;;;31.30;60.60;;;;;;4978767;28;20838;-63
2022/06/25 11:44:40;;;;;;;2.60;1.70;;;30.80;62.70;;;;;;4978863;28;20459;-62
2022/06/25 11:47:07;;;;;;;2.23;2.13;;;30.40;64.00;;;;;;4978871;28;20462;-63
2022/06/25 11:49:37;;;;;;;1.40;1.40;;;30.10;64.50;;;;;;4978779;28;20461;-63
2022/06/25 11:52:05;;;;;;;2.37;1.73;;;30.00;65.20;;;;;;4978875;28;20481;-63
2022/06/25 11:54:36;;;;;;;1.80;1.63;;;30.00;68.70;;;;;;4978377;28;20446;-63
2022/06/25 11:57:04;;;;;;;1.97;1.50;;;30.10;65.80;;;;;;4978030;28;20903;-63
2022/06/25 11:59:33;;;;;;;2.43;2.27;;;30.30;66.30;;;;;;4978083;28;20458;-64
2022/06/25 12:02:03;;;;;;;2.43;2.23;;;29.80;65.10;;;;;;4977736;28;20495;-63
2022/06/25 12:04:31;;;;;;;2.17;2.03;;;29.70;70.60;;;;;;4978371;28;20494;-63
2022/06/25 12:06:58;;;;;;;2.00;1.93;;;29.60;68.40;;;;;;4977693;28;20521;-63
2022/06/25 12:09:25;;;;;;;1.90;1.77;;;29.50;72.10;;;;;;4977859;28;20455;-63
2022/06/25 12:11:53;;;;;;;2.07;1.87;;;29.80;66.20;;;;;;4977862;28;20484;-63
2022/06/25 12:14:22;;;;;;;2.30;1.67;;;29.70;66.30;;;;;;4976592;28;20454;-63
2022/06/25 12:16:49;;;;;;;2.03;1.93;;;29.90;65.40;;;;;;4977438;28;20888;-63
2022/06/25 12:19:18;;;;;;;3.17;2.87;;;30.00;67.40;;;;;;4977478;28;20454;-63
2022/06/25 12:21:45;;;;;;;3.70;2.53;;;30.30;71.40;;;;;;4977607;28;20482;-63
2022/06/25 12:24:13;;;;;;;2.67;2.33;;;30.50;67.70;;;;;;4977475;28;20477;-63
2022/06/25 12:26:43;;;;;;;1.70;1.60;;;30.70;67.70;;;;;;4977412;28;21011;-63
2022/06/25 12:29:12;;;;;;;2.20;2.00;;;30.70;65.80;;;;;;4978699;28;20461;-62
2022/06/25 12:31:40;;;;;;;1.83;1.73;;;30.80;65.50;;;;;;4977169;28;21052;-62
2022/06/25 12:34:09;;;;;;;1.60;1.50;;;30.80;63.80;;;;;;4977166;28;20458;-62
2022/06/25 12:36:40;;;;;;;1.83;1.60;;;30.60;63.30;;;;;;4977349;28;20457;-62
2022/06/25 12:39:33;;;;;;;1.87;1.77;;;30.60;62.70;;;;;;4977816;28;20522;-62
2022/06/25 12:42:06;;;;;;;1.90;1.80;;;30.70;65.30;;;;;;4977432;28;20483;-62
2022/06/25 12:44:35;;;;;;;2.03;1.73;;;30.70;64.70;;;;;;4982771;28;20454;-62
2022/06/25 12:47:04;;;;;;;4.03;1.90;;;30.70;65.20;;;;;;4984471;28;20478;-62
2022/06/25 12:49:58;;;;;;;2.77;1.70;;;30.60;62.50;;;;;;4979786;28;20458;-62
2022/06/25 12:52:35;;;;;;;1.90;1.80;;;30.50;62.50;;;;;;4943776;28;20475;-62
2022/06/25 12:55:02;;;;;;;1.80;1.70;;;30.40;61.80;;;;;;4977470;28;20439;-62
2022/06/25 12:57:31;;;;;;;2.07;1.93;;;30.40;66.30;;;;;;4977661;28;20458;-62
2022/06/25 12:59:59;;;;;;;1.70;1.60;;;30.50;66.60;;;;;;4976991;28;20450;-63
2022/06/25 13:02:26;;;;;;;2.50;1.57;;;30.50;60.50;;;;;;4976527;28;20489;-63
2022/06/25 13:04:54;;;;;;;1.87;1.70;;;30.50;61.80;;;;;;4977094;28;20505;-61
2022/06/25 13:07:21;;;;;;;2.20;1.53;;;30.60;65.50;;;;;;4976384;28;20481;-62
2022/06/25 13:09:50;;;;;;;1.77;1.67;;;30.60;59.50;;;;;;4977062;28;20461;-62
2022/06/25 13:12:17;;;;;;;2.30;1.57;;;30.30;61.90;;;;;;4977378;28;20478;-62
2022/06/25 13:14:44;;;;;;;1.80;1.70;;;30.40;63.30;;;;;;4976822;28;20513;-63
2022/06/25 13:17:11;;;;;;;1.63;1.63;;;30.50;65.00;;;;;;4976487;28;20462;-62
2022/06/25 13:19:39;;;;;;;1.63;1.53;;;30.80;63.10;;;;;;4977102;28;20462;-62
2022/06/25 13:22:07;;;;;;;2.20;2.00;;;30.80;60.80;;;;;;4976753;28;21021;-62
2022/06/25 13:24:34;;;;;;;1.90;1.80;;;30.90;58.70;;;;;;4976836;28;20458;-62
2022/06/25 13:27:02;;;;;;;2.07;1.87;;;30.90;58.80;;;;;;4976083;28;20471;-62
2022/06/25 13:29:29;;;;;;;1.83;1.60;;;30.80;61.80;;;;;;4976411;28;20459;-62
2022/06/25 13:31:57;;;;;;;1.83;1.67;;;30.70;59.90;;;;;;4976106;28;21012;-63
2022/06/25 13:34:24;;;;;;;1.37;1.37;;;30.30;58.40;;;;;;4976091;28;20462;-63
2022/06/25 13:36:51;;;;;;;1.50;1.50;;;30.30;60.70;;;;;;4975891;28;20454;-62
2022/06/25 13:39:17;;;;;;;1.70;1.43;;;30.30;60.00;;;;;;4976162;28;20466;-62
2022/06/25 13:41:45;;;;;;;1.80;1.70;;;30.40;62.20;;;;;;4976151;28;20474;-63
2022/06/25 13:44:13;;;;;;;2.70;1.70;;;30.40;60.50;;;;;;4976008;28;20458;-62
2022/06/25 13:46:40;;;;;;;1.60;1.50;;;30.50;61.30;;;;;;4976024;28;20482;-63
2022/06/25 13:49:07;;;;;;;4.93;1.60;;;30.60;62.10;;;;;;4975696;28;20954;-63
2022/06/25 13:51:34;;;;;;;2.40;2.20;;;30.70;58.10;;;;;;4975985;28;20474;-63
2022/06/25 13:54:01;;;;;;;2.30;1.73;;;30.40;61.80;;;;;;4976057;28;20514;-63
2022/06/25 13:56:28;;;;;;;1.60;1.50;;;30.40;60.80;;;;;;4975882;28;20478;-63
2022/06/25 13:58:54;;;;;;;2.50;1.60;;;30.60;60.80;;;;;;4975653;28;20529;-62
2022/06/25 14:01:22;;;;;;;1.50;1.40;;;30.50;59.30;;;;;;4975916;28;20489;-63
2022/06/25 14:03:49;;;;;;;1.70;1.60;;;30.50;59.60;;;;;;4975662;28;20465;-63
2022/06/25 14:06:16;;;;;;;1.70;1.60;;;30.60;60.90;;;;;;4975390;28;21012;-63
2022/06/25 14:08:43;;;;;;;1.30;1.20;;;30.50;59.80;;;;;;4975637;28;20455;-62
2022/06/25 14:11:12;;;;;;;1.87;1.50;;;30.70;58.40;;;;;;4975544;28;20474;-62
2022/06/25 14:13:39;;;;;;;1.57;1.57;;;30.80;58.10;;;;;;4975335;28;20554;-63
2022/06/25 14:16:06;;;;;;;2.93;1.33;;;30.90;57.10;;;;;;4975721;28;20490;-63
2022/06/25 14:18:34;;;;;;;2.47;1.60;;;30.60;57.00;;;;;;4975316;28;20482;-63
2022/06/25 14:21:02;;;;;;;1.47;1.47;;;30.40;58.00;;;;;;4975346;28;20485;-63
2022/06/25 14:23:29;;;;;;;1.40;1.30;;;30.50;59.20;;;;;;4975502;28;20454;-63
2022/06/25 14:25:56;;;;;;;1.47;1.37;;;30.50;59.10;;;;;;4975293;28;20459;-62
2022/06/25 14:28:23;;;;;;;1.57;1.30;;;30.60;59.50;;;;;;4975409;28;20501;-62
2022/06/25 14:30:50;;;;;;;5.50;1.50;;;30.60;60.90;;;;;;4975200;28;20485;-62
2022/06/25 14:33:17;;;;;;;1.80;1.60;;;30.70;59.10;;;;;;4975363;28;20521;-63
2022/06/25 14:43:54;;;;;;;1.40;1.30;;;30.60;57.70;;;;;;4975406;28;20414;-63
2022/06/25 14:46:21;;;;;;;1.70;1.60;;;30.60;60.50;;;;;;4975183;28;20478;-63
2022/06/25 14:48:48;;;;;;;1.63;1.40;;;30.70;59.40;;;;;;4975173;28;20462;-64
2022/06/25 14:51:17;;;;;;;1.80;1.30;;;30.60;61.10;;;;;;4974860;28;20998;-63
2022/06/25 14:53:43;;;;;;;1.70;1.60;;;30.60;62.00;;;;;;4974991;28;20458;-63
2022/06/25 14:56:10;;;;;;;1.53;1.40;;;30.70;62.00;;;;;;4974894;28;20486;-63
2022/06/25 14:58:37;;;;;;;1.53;1.43;;;30.60;59.70;;;;;;4975213;28;20464;-64
2022/06/25 15:01:04;;;;;;;2.40;1.70;;;30.60;59.80;;;;;;4975086;28;20508;-63
2022/06/25 15:03:30;;;;;;;1.20;1.20;;;30.60;58.00;;;;;;4974683;28;20458;-63
2022/06/25 15:05:57;;;;;;;1.40;1.40;;;30.50;58.70;;;;;;4974962;28;20462;-63
2022/06/25 15:08:25;;;;;;;1.23;1.23;;;30.40;61.40;;;;;;4975643;28;21028;-63
2022/06/25 15:10:52;;;;;;;1.30;1.30;;;30.60;59.90;;;;;;4975072;28;20474;-63
2022/06/25 15:13:19;;;;;;;1.50;1.50;;;30.60;59.60;;;;;;4974864;28;20459;-63
2022/06/25 15:15:45;;;;;;;1.70;1.60;;;30.70;59.60;;;;;;4974985;28;20454;-63
2022/06/25 15:18:12;;;;;;;1.80;1.70;;;30.70;58.70;;;;;;4974925;28;20455;-63
2022/06/25 15:20:39;;;;;;;1.37;1.37;;;30.70;60.10;;;;;;4974787;28;20521;-63
2022/06/25 15:23:06;;;;;;;1.10;1.10;;;30.40;57.40;;;;;;4974885;28;20462;-63
2022/06/25 15:25:34;;;;;;;1.10;1.10;;;30.20;58.00;;;;;;4975037;28;20458;-63
2022/06/25 15:28:00;;;;;;;1.57;1.53;;;30.10;58.90;;;;;;4974875;28;20541;-64
2022/06/25 15:30:27;;;;;;;1.30;1.20;;;30.10;59.10;;;;;;4974632;28;20458;-64
2022/06/25 15:32:54;;;;;;;1.30;1.30;;;30.10;59.40;;;;;;4975072;28;20458;-63
2022/06/25 15:35:21;;;;;;;1.13;1.13;;;30.10;58.90;;;;;;4974780;28;20455;-63
2022/06/25 15:37:47;;;;;;;2.10;1.90;;;30.10;58.70;;;;;;4974443;28;21001;-63
2022/06/25 15:40:14;;;;;;;1.60;1.50;;;30.10;60.00;;;;;;4974713;28;20458;-64
2022/06/25 15:42:42;;;;;;;1.80;1.70;;;30.20;59.50;;;;;;4974373;28;20954;-65
2022/06/25 15:45:10;;;;;;;1.90;1.80;;;30.10;59.40;;;;;;4974823;28;20462;-65
2022/06/25 15:47:36;;;;;;;1.50;1.40;;;30.00;59.50;;;;;;4974270;28;20998;-65
2022/06/25 15:50:03;;;;;;;1.50;1.40;;;29.90;61.10;;;;;;4978074;28;20465;-66
2022/06/25 15:52:30;;;;;;;1.80;1.63;;;29.90;59.60;;;;;;4978388;28;20474;-65
2022/06/25 15:54:57;;;;;;;1.50;1.50;;;29.80;60.70;;;;;;4978780;28;20482;-65
2022/06/25 15:57:24;;;;;;;1.60;1.50;;;29.80;60.70;;;;;;4978233;28;20450;-65
2022/06/25 15:59:52;;;;;;;2.50;1.60;;;29.70;61.10;;;;;;4977969;28;20458;-65
2022/06/25 16:02:18;;;;;;;2.03;1.80;;;29.60;61.20;;;;;;4977714;28;20486;-65
2022/06/25 16:04:45;;;;;;;2.00;1.90;;;29.60;60.90;;;;;;4977990;28;20462;-65
2022/06/25 16:07:12;;;;;;;1.47;1.47;;;29.50;61.00;;;;;;4978143;28;20482;-65
2022/06/25 16:09:38;;;;;;;1.20;1.20;;;29.50;63.70;;;;;;4977933;28;20461;-65
2022/06/25 16:12:06;;;;;;;1.73;1.63;;;29.40;62.10;;;;;;4978518;28;20863;-65
2022/06/25 16:14:33;;;;;;;1.63;1.53;;;29.40;63.20;;;;;;4979136;28;20446;-65
2022/06/25 16:17:01;;;;;;;1.60;1.50;;;29.40;63.90;;;;;;4979635;28;20458;-66
2022/06/25 16:19:28;;;;;;;1.63;1.27;;;29.40;62.30;;;;;;4978833;28;20459;-65
2022/06/25 16:21:55;;;;;;;1.83;1.73;;;29.30;62.30;;;;;;4982583;28;20486;-66
2022/06/25 16:24:24;;;;;;;4.50;1.70;;;29.30;62.90;;;;;;4987311;28;20453;-65
2022/06/25 16:26:52;;;;;;;1.60;1.50;;;29.30;63.10;;;;;;4985979;28;20514;-65
2022/06/25 16:29:19;;;;;;;2.27;1.50;;;29.30;62.80;;;;;;4978499;28;20513;-66
2022/06/25 16:31:47;;;;;;;1.53;1.43;;;29.30;61.50;;;;;;4978022;28;20510;-64
2022/06/25 16:34:15;;;;;;;2.80;1.80;;;29.30;61.60;;;;;;4977828;28;20826;-65
2022/06/25 16:36:43;;;;;;;2.77;1.70;;;29.30;62.40;;;;;;4977733;28;20459;-65
2022/06/25 16:39:10;;;;;;;1.40;1.40;;;29.30;61.50;;;;;;4977620;28;20459;-65
2022/06/25 16:41:36;;;;;;;1.77;1.67;;;29.20;62.30;;;;;;4977501;28;20485;-65
2022/06/25 16:44:05;;;;;;;1.70;1.60;;;29.20;63.00;;;;;;4977854;28;20824;-64
2022/06/25 16:46:34;;;;;;;1.73;1.70;;;29.20;63.70;;;;;;4977629;28;20459;-65
2022/06/25 16:49:03;;;;;;;1.80;1.70;;;29.10;62.50;;;;;;4977186;28;21017;-64
2022/06/25 16:51:32;;;;;;;1.87;1.77;;;29.00;61.80;;;;;;4977279;28;20482;-64
2022/06/25 16:53:59;;;;;;;1.93;1.83;;;28.90;61.30;;;;;;4977108;28;20865;-65
2022/06/25 16:56:27;;;;;;;1.97;1.83;;;28.80;62.40;;;;;;4977524;28;20472;-64
2022/06/25 16:58:54;;;;;;;2.13;1.30;;;28.80;64.10;;;;;;4977202;28;20447;-65
2022/06/25 17:01:21;;;;;;;1.53;1.43;;;28.80;63.90;;;;;;4976377;28;20482;-65
2022/06/25 17:03:48;;;;;;;2.10;2.00;;;28.80;63.60;;;;;;4977328;28;20454;-66
2022/06/25 17:06:15;;;;;;;3.67;1.70;;;28.70;64.10;;;;;;4978036;28;20493;-65
2022/06/25 17:08:44;;;;;;;1.67;1.57;;;28.60;63.60;;;;;;4977029;28;20485;-66
2022/06/25 17:11:11;;;;;;;2.00;1.90;;;28.60;63.30;;;;;;4976919;28;20509;-66